createdAt,value
2023-01-30T00:00:13.060Z,-0.18
2023-01-30T00:01:14.675Z,-0.19
2023-01-30T00:02:12.837Z,-0.2
2023-01-30T00:03:12.816Z,-0.19
2023-01-30T00:04:14.881Z,-0.19
2023-01-30T00:05:13.769Z,-0.19
2023-01-30T00:06:14.206Z,-0.19
2023-01-30T00:07:13.648Z,-0.18
2023-01-30T00:08:13.699Z,-0.17
2023-01-30T00:09:14.258Z,-0.19
2023-01-30T00:10:14.011Z,-0.19
2023-01-30T00:11:14.858Z,-0.2
2023-01-30T00:12:13.724Z,-0.21
2023-01-30T00:13:14.135Z,-0.21
2023-01-30T00:14:13.761Z,-0.19
2023-01-30T00:15:13.758Z,-0.19
2023-01-30T00:16:13.906Z,-0.2
2023-01-30T00:17:13.760Z,-0.19
2023-01-30T00:18:13.778Z,-0.19
2023-01-30T00:19:13.813Z,-0.19
2023-01-30T00:20:15.739Z,-0.19
2023-01-30T00:21:14.529Z,-0.19
2023-01-30T00:22:13.885Z,-0.2
2023-01-30T00:23:13.876Z,-0.19
2023-01-30T00:24:14.083Z,-0.19
2023-01-30T00:25:14.190Z,-0.2
2023-01-30T00:26:14.060Z,-0.2
2023-01-30T00:27:13.903Z,-0.21
2023-01-30T00:28:13.959Z,-0.19
2023-01-30T00:29:13.946Z,-0.19
2023-01-30T00:30:14.310Z,-0.19
2023-01-30T00:31:14.106Z,-0.15
2023-01-30T00:32:13.995Z,-0.15
2023-01-30T00:33:14.039Z,-0.19
2023-01-30T00:34:14.017Z,-0.2
2023-01-30T00:35:14.118Z,-0.22
2023-01-30T00:36:14.080Z,-0.21
2023-01-30T00:37:14.071Z,-0.21
2023-01-30T00:38:14.323Z,-0.21
2023-01-30T00:39:14.105Z,-0.2
2023-01-30T00:40:14.242Z,-0.22
2023-01-30T00:41:14.324Z,-0.19
2023-01-30T00:42:14.217Z,-0.17
2023-01-30T00:43:15.211Z,-0.2
2023-01-30T00:44:14.093Z,-0.2
2023-01-30T00:45:14.183Z,-0.2
2023-01-30T00:46:22.761Z,-0.22
2023-01-30T00:47:14.697Z,-0.21
2023-01-30T00:48:14.507Z,-0.2
2023-01-30T00:49:14.740Z,-0.19
2023-01-30T00:50:14.853Z,-0.2
2023-01-30T00:51:14.750Z,-0.17
2023-01-30T00:52:14.548Z,-0.18
2023-01-30T00:53:15.543Z,-0.19
2023-01-30T00:54:14.712Z,-0.18
2023-01-30T00:55:14.813Z,-0.18
2023-01-30T00:56:19.643Z,-0.18
2023-01-30T00:57:16.327Z,-0.15
2023-01-30T00:58:16.338Z,-0.15
2023-01-30T00:59:16.383Z,-0.15
2023-01-30T01:00:16.626Z,-0.15
2023-01-30T01:01:16.469Z,-0.14
2023-01-30T01:02:16.530Z,-0.15
2023-01-30T01:03:16.802Z,-0.15
2023-01-30T01:04:16.409Z,-0.17
2023-01-30T01:05:16.966Z,-0.14
2023-01-30T01:06:16.491Z,-0.14
2023-01-30T01:07:16.476Z,-0.13
2023-01-30T01:08:16.555Z,-0.15
2023-01-30T01:09:16.588Z,-0.15
2023-01-30T01:10:17.050Z,-0.18
2023-01-30T01:11:16.711Z,-0.18
2023-01-30T01:12:16.548Z,-0.2
2023-01-30T01:13:16.589Z,-0.18
2023-01-30T01:14:16.528Z,-0.16
2023-01-30T01:15:17.052Z,-0.18
2023-01-30T01:16:16.596Z,-0.14
2023-01-30T01:17:16.598Z,-0.15
2023-01-30T01:18:16.550Z,-0.15
2023-01-30T01:19:16.664Z,-0.16
2023-01-30T01:20:17.071Z,-0.17
2023-01-30T01:21:19.310Z,-0.18
2023-01-30T01:22:16.715Z,-0.18
2023-01-30T01:23:16.649Z,-0.16
2023-01-30T01:24:17.073Z,-0.16
2023-01-30T01:25:17.135Z,-0.17
2023-01-30T01:26:17.080Z,-0.12
2023-01-30T01:27:16.705Z,-0.12
2023-01-30T01:28:16.753Z,-0.1
2023-01-30T01:29:17.029Z,-0.11
2023-01-30T01:30:17.114Z,-0.14
2023-01-30T01:31:17.415Z,-0.14
2023-01-30T01:32:16.871Z,-0.14
2023-01-30T01:33:16.802Z,-0.17
2023-01-30T01:34:16.813Z,-0.16
2023-01-30T01:35:17.217Z,-0.15
2023-01-30T01:36:42.321Z,-0.15
2023-01-30T01:37:18.069Z,-0.16
2023-01-30T01:38:18.052Z,-0.15
2023-01-30T01:39:18.081Z,-0.14
2023-01-30T01:40:19.855Z,-0.14
2023-01-30T01:41:18.259Z,-0.14
2023-01-30T01:42:18.241Z,-0.15
2023-01-30T01:43:19.356Z,-0.17
2023-01-30T01:44:18.203Z,-0.15
2023-01-30T01:46:23.545Z,-0.13
2023-01-30T01:47:21.010Z,-0.14
2023-01-30T01:52:29.752Z,-0.12
2023-01-30T01:53:33.927Z,-0.14
2023-01-30T01:55:33.868Z,-0.1
2023-01-30T01:56:34.446Z,-0.1
2023-01-30T01:57:36.749Z,-0.1
2023-01-30T01:58:40.871Z,-0.11
2023-01-30T01:59:46.228Z,-0.09
2023-01-30T02:00:37.438Z,-0.09
2023-01-30T02:01:37.491Z,-0.1
2023-01-30T02:02:38.546Z,-0.11
2023-01-30T02:03:38.853Z,-0.11
2023-01-30T02:04:39.924Z,-0.07
2023-01-30T02:05:41.616Z,-0.08
2023-01-30T02:06:39.560Z,-0.1
2023-01-30T02:07:46.670Z,-0.11
2023-01-30T02:08:40.410Z,-0.05
2023-01-30T02:09:37.959Z,-0.05
2023-01-30T02:11:47.332Z,-0.09
2023-01-30T02:12:43.641Z,-0.09
2023-01-30T02:13:44.747Z,-0.1
2023-01-30T02:14:43.949Z,-0.04
2023-01-30T02:15:43.596Z,-0.04
2023-01-30T02:16:44.559Z,-0.06
2023-01-30T02:17:43.655Z,-0.06
2023-01-30T02:18:45.180Z,-0.07
2023-01-30T02:19:50.250Z,-0.05
2023-01-30T02:24:07.444Z,-0.06
2023-01-30T02:39:55.073Z,0.05
2023-01-30T02:40:53.599Z,0.1
2023-01-30T02:41:59.774Z,0.06
2023-01-30T02:47:04.429Z,0.04
2023-01-30T02:48:11.341Z,0.01
2023-01-30T02:52:13.389Z,0.04
2023-01-30T02:53:11.362Z,0.01
2023-01-30T02:54:12.060Z,0.06
2023-01-30T02:56:16.142Z,0.12
2023-01-30T02:57:20.285Z,0.11
2023-01-30T02:58:21.205Z,0.1
2023-01-30T02:59:20.176Z,0.15
2023-01-30T03:12:00.511Z,0.19
2023-01-30T03:12:58.057Z,0.2
2023-01-30T03:14:03.378Z,0.2
2023-01-30T03:15:01.189Z,0.22
2023-01-30T03:16:07.254Z,0.22
2023-01-30T03:17:00.650Z,0.22
2023-01-30T03:17:59.494Z,0.19
2023-01-30T03:19:02.379Z,0.23
2023-01-30T03:19:59.111Z,0.21
2023-01-30T03:21:03.578Z,0.25
2023-01-30T03:22:00.819Z,0.29
2023-01-30T03:23:00.277Z,0.27
2023-01-30T03:24:00.329Z,0.2
2023-01-30T03:25:00.411Z,0.19
2023-01-30T03:26:02.363Z,0.19
2023-01-30T03:27:08.884Z,0.21
2023-01-30T03:28:01.958Z,0.26
2023-01-30T03:29:01.342Z,0.26
2023-01-30T03:30:00.628Z,0.19
2023-01-30T03:31:00.826Z,0.19
2023-01-30T03:32:00.765Z,0.26
2023-01-30T03:33:00.829Z,0.23
2023-01-30T03:34:00.632Z,0.23
2023-01-30T03:35:01.182Z,0.19
2023-01-30T03:36:01.353Z,0.22
2023-01-30T03:37:01.509Z,0.21
2023-01-30T03:38:01.279Z,0.21
2023-01-30T03:39:01.414Z,0.19
2023-01-30T03:40:01.429Z,0.2
2023-01-30T03:41:01.925Z,0.17
2023-01-30T03:42:01.308Z,0.22
2023-01-30T03:43:01.299Z,0.19
2023-01-30T03:44:01.332Z,0.18
2023-01-30T03:45:01.318Z,0.21
2023-01-30T03:46:01.357Z,0.15
2023-01-30T03:47:01.365Z,0.16
2023-01-30T03:48:01.641Z,0.23
2023-01-30T03:49:01.463Z,0.23
2023-01-30T03:50:01.426Z,0.2
2023-01-30T03:51:01.426Z,0.22
2023-01-30T03:52:01.451Z,0.2
2023-01-30T03:53:01.846Z,0.21
2023-01-30T03:54:01.465Z,0.19
2023-01-30T03:55:01.602Z,0.19
2023-01-30T03:56:01.549Z,0.19
2023-01-30T03:57:01.516Z,0.17
2023-01-30T03:58:01.524Z,0.15
2023-01-30T03:59:01.606Z,0.22
2023-01-30T04:00:01.628Z,0.18
2023-01-30T04:01:01.648Z,0.16
2023-01-30T04:02:01.578Z,0.18
2023-01-30T04:03:01.669Z,0.16
2023-01-30T04:04:01.680Z,0.19
2023-01-30T04:05:01.610Z,0.18
2023-01-30T04:06:01.667Z,0.18
2023-01-30T04:07:01.656Z,0.18
2023-01-30T04:08:01.710Z,0.2
2023-01-30T04:09:01.770Z,0.2
2023-01-30T04:10:01.731Z,0.16
2023-01-30T04:11:01.722Z,0.17
2023-01-30T04:12:01.762Z,0.16
2023-01-30T04:13:01.789Z,0.12
2023-01-30T04:14:01.832Z,0.14
2023-01-30T04:15:01.792Z,0.13
2023-01-30T04:17:02.017Z,0.15
2023-01-30T04:18:02.082Z,0.15
2023-01-30T04:19:02.079Z,0.16
2023-01-30T04:20:02.185Z,0.11
2023-01-30T04:21:02.097Z,0.07
2023-01-30T04:22:02.080Z,0.11
2023-01-30T04:23:02.695Z,0.08
2023-01-30T04:24:02.699Z,0.07
2023-01-30T04:25:03.001Z,0.11
2023-01-30T04:26:02.685Z,0.08
2023-01-30T04:27:02.688Z,0.07
2023-01-30T04:28:02.676Z,0.05
2023-01-30T04:29:02.757Z,0.04
2023-01-30T04:30:03.280Z,0.04
2023-01-30T04:31:03.247Z,0.04
2023-01-30T04:32:02.861Z,0.04
2023-01-30T04:33:02.798Z,0.11
2023-01-30T04:34:02.969Z,0.15
2023-01-30T04:35:03.067Z,0.16
2023-01-30T04:36:03.954Z,0.18
2023-01-30T04:37:02.907Z,0.17
2023-01-30T04:38:02.843Z,0.12
2023-01-30T04:39:03.150Z,0.12
2023-01-30T04:40:03.051Z,0.13
2023-01-30T04:41:03.276Z,0.12
2023-01-30T04:42:03.052Z,0.09
2023-01-30T04:43:02.917Z,0.14
2023-01-30T04:44:03.137Z,0.13
2023-01-30T04:45:03.125Z,0.1
2023-01-30T04:46:03.050Z,0.07
2023-01-30T04:47:03.029Z,0.1
2023-01-30T04:48:03.197Z,0.09
2023-01-30T04:49:03.154Z,0.07
2023-01-30T04:50:03.221Z,0.04
2023-01-30T04:51:03.243Z,0.05
2023-01-30T04:52:03.219Z,0.04
2023-01-30T04:53:03.272Z,0.04
2023-01-30T04:54:03.414Z,0.06
2023-01-30T04:55:03.371Z,0.02
2023-01-30T04:56:03.284Z,0
2023-01-30T04:57:03.239Z,-0.03
2023-01-30T04:58:03.423Z,-0.04
2023-01-30T04:59:03.224Z,-0.01
2023-01-30T05:00:03.713Z,-0.01
2023-01-30T05:02:08.148Z,-0.06
2023-01-30T05:03:08.099Z,-0.03
2023-01-30T05:04:08.159Z,0
2023-01-30T05:05:08.647Z,0
2023-01-30T05:06:08.186Z,-0.03
2023-01-30T05:07:08.157Z,-0.06
2023-01-30T05:08:08.187Z,-0.06
2023-01-30T05:09:08.444Z,-0.02
2023-01-30T05:10:08.932Z,-0.01
2023-01-30T05:11:08.216Z,-0.03
2023-01-30T05:12:08.234Z,-0.02
2023-01-30T05:13:08.273Z,-0.04
2023-01-30T05:14:08.311Z,-0.05
2023-01-30T05:15:09.248Z,-0.04
2023-01-30T05:16:08.307Z,-0.09
2023-01-30T05:17:08.390Z,-0.08
2023-01-30T05:18:08.356Z,-0.05
2023-01-30T05:19:09.351Z,-0.07
2023-01-30T05:20:09.475Z,-0.08
2023-01-30T05:21:09.656Z,-0.09
2023-01-30T05:22:08.415Z,-0.09
2023-01-30T05:23:08.418Z,-0.08
2023-01-30T05:24:08.446Z,-0.07
2023-01-30T05:25:09.133Z,-0.07
2023-01-30T05:26:08.923Z,-0.09
2023-01-30T05:27:08.483Z,-0.1
2023-01-30T05:28:08.485Z,-0.07
2023-01-30T05:29:09.914Z,-0.07
2023-01-30T05:30:09.142Z,-0.08
2023-01-30T05:31:10.365Z,-0.08
2023-01-30T05:32:12.236Z,-0.08
2023-01-30T05:33:08.578Z,-0.1
2023-01-30T05:34:10.770Z,-0.11
2023-01-30T05:35:08.828Z,-0.1
2023-01-30T05:36:13.806Z,-0.07
2023-01-30T05:37:11.003Z,-0.07
2023-01-30T05:38:10.070Z,-0.07
2023-01-30T05:39:10.100Z,-0.09
2023-01-30T05:40:10.666Z,-0.07
2023-01-30T05:41:10.749Z,-0.06
2023-01-30T05:42:10.183Z,-0.04
2023-01-30T05:43:10.338Z,-0.04
2023-01-30T05:44:11.765Z,-0.03
2023-01-30T05:45:10.449Z,-0.03
2023-01-30T05:46:11.155Z,-0.05
2023-01-30T05:47:10.259Z,-0.09
2023-01-30T05:48:10.249Z,-0.1
2023-01-30T05:49:10.237Z,-0.08
2023-01-30T05:50:10.908Z,-0.1
2023-01-30T05:52:11.699Z,-0.13
2023-01-30T05:53:11.776Z,-0.1
2023-01-30T05:54:12.457Z,-0.1
2023-01-30T05:55:11.719Z,-0.1
2023-01-30T05:56:11.733Z,-0.11
2023-01-30T05:57:12.511Z,-0.1
2023-01-30T05:58:12.069Z,-0.14
2023-01-30T05:59:11.971Z,-0.13
2023-01-30T06:00:12.262Z,-0.1
2023-01-30T06:01:12.696Z,-0.12
2023-01-30T06:02:12.153Z,-0.13
2023-01-30T06:03:11.878Z,-0.16
2023-01-30T06:04:12.826Z,-0.14
2023-01-30T06:05:11.918Z,-0.16
2023-01-30T06:06:12.833Z,-0.11
2023-01-30T06:07:11.874Z,-0.02
2023-01-30T06:08:12.202Z,-0.03
2023-01-30T06:09:11.900Z,-0.04
2023-01-30T06:10:11.946Z,-0.02
2023-01-30T06:11:14.331Z,-0.12
2023-01-30T06:12:12.008Z,-0.12
2023-01-30T06:13:12.017Z,-0.13
2023-01-30T06:14:12.037Z,-0.11
2023-01-30T06:15:12.013Z,-0.14
2023-01-30T06:16:12.819Z,-0.14
2023-01-30T06:17:12.067Z,-0.14
2023-01-30T06:18:12.232Z,-0.19
2023-01-30T06:19:12.105Z,-0.13
2023-01-30T06:20:12.364Z,-0.11
2023-01-30T06:21:12.248Z,-0.07
2023-01-30T06:22:12.158Z,-0.1
2023-01-30T06:23:12.157Z,-0.09
2023-01-30T06:24:12.424Z,-0.12
2023-01-30T06:25:12.173Z,-0.11
2023-01-30T06:26:12.224Z,-0.07
2023-01-30T06:27:12.186Z,-0.06
2023-01-30T06:28:12.429Z,-0.13
2023-01-30T06:29:12.497Z,-0.16
2023-01-30T06:30:12.805Z,-0.17
2023-01-30T06:31:12.385Z,-0.19
2023-01-30T06:32:12.302Z,-0.14
2023-01-30T06:33:12.305Z,-0.15
2023-01-30T06:34:12.515Z,-0.2
2023-01-30T06:35:12.316Z,-0.14
2023-01-30T06:36:12.741Z,-0.18
2023-01-30T06:37:12.368Z,-0.15
2023-01-30T06:38:12.518Z,-0.16
2023-01-30T06:39:12.423Z,-0.17
2023-01-30T06:40:13.014Z,-0.16
2023-01-30T06:41:12.441Z,-0.22
2023-01-30T06:42:12.465Z,-0.21
2023-01-30T06:43:12.961Z,-0.23
2023-01-30T06:44:12.573Z,-0.25
2023-01-30T06:45:13.526Z,-0.23
2023-01-30T06:46:12.756Z,-0.21
2023-01-30T06:47:12.730Z,-0.25
2023-01-30T06:48:12.555Z,-0.27
2023-01-30T06:49:12.611Z,-0.26
2023-01-30T06:50:13.411Z,-0.25
2023-01-30T06:51:12.777Z,-0.26
2023-01-30T06:52:12.608Z,-0.26
2023-01-30T06:53:12.894Z,-0.26
2023-01-30T06:54:12.644Z,-0.26
2023-01-30T06:55:13.721Z,-0.28
2023-01-30T06:56:12.683Z,-0.27
2023-01-30T06:57:12.687Z,-0.29
2023-01-30T06:58:13.834Z,-0.29
2023-01-30T06:59:12.753Z,-0.26
2023-01-30T07:00:14.327Z,-0.27
2023-01-30T07:01:12.782Z,-0.33
2023-01-30T07:02:13.029Z,-0.28
2023-01-30T07:03:13.845Z,-0.31
2023-01-30T07:04:12.857Z,-0.28
2023-01-30T07:05:12.838Z,-0.3
2023-01-30T07:06:12.854Z,-0.31
2023-01-30T07:07:12.856Z,-0.27
2023-01-30T07:08:13.472Z,-0.34
2023-01-30T07:09:13.048Z,-0.37
2023-01-30T07:10:12.932Z,-0.34
2023-01-30T07:11:12.938Z,-0.32
2023-01-30T07:12:12.918Z,-0.33
2023-01-30T07:13:13.129Z,-0.33
2023-01-30T07:14:13.169Z,-0.37
2023-01-30T07:15:13.114Z,-0.34
2023-01-30T07:16:13.014Z,-0.31
2023-01-30T07:17:13.011Z,-0.33
2023-01-30T07:18:13.320Z,-0.32
2023-01-30T07:19:13.753Z,-0.36
2023-01-30T07:20:13.253Z,-0.31
2023-01-30T07:21:13.069Z,-0.36
2023-01-30T07:22:13.360Z,-0.31
2023-01-30T07:23:13.099Z,-0.33
2023-01-30T07:24:13.338Z,-0.3
2023-01-30T07:25:13.220Z,-0.3
2023-01-30T07:26:13.202Z,-0.32
2023-01-30T07:27:13.393Z,-0.31
2023-01-30T07:28:13.153Z,-0.31
2023-01-30T07:29:13.329Z,-0.32
2023-01-30T07:30:13.426Z,-0.33
2023-01-30T07:31:13.249Z,-0.29
2023-01-30T07:32:17.523Z,-0.29
2023-01-30T07:33:13.741Z,-0.3
2023-01-30T07:34:13.790Z,-0.3
2023-01-30T07:35:13.753Z,-0.31
2023-01-30T07:36:13.781Z,-0.3
2023-01-30T07:37:14.110Z,-0.3
2023-01-30T07:38:13.815Z,-0.3
2023-01-30T07:39:13.892Z,-0.32
2023-01-30T07:40:14.456Z,-0.31
2023-01-30T07:41:13.885Z,-0.3
2023-01-30T07:42:13.887Z,-0.33
2023-01-30T07:43:14.396Z,-0.29
2023-01-30T07:44:13.964Z,-0.25
2023-01-30T07:45:14.151Z,-0.24
2023-01-30T07:46:13.932Z,-0.25
2023-01-30T07:47:14.035Z,-0.25
2023-01-30T07:48:15.483Z,-0.18
2023-01-30T07:49:14.035Z,-0.18
2023-01-30T07:50:14.162Z,-0.19
2023-01-30T07:51:14.167Z,-0.22
2023-01-30T07:52:14.042Z,-0.24
2023-01-30T07:53:15.613Z,-0.2
2023-01-30T07:54:14.115Z,-0.18
2023-01-30T07:55:14.181Z,-0.19
2023-01-30T07:56:14.096Z,-0.17
2023-01-30T07:57:14.143Z,-0.21
2023-01-30T07:58:14.702Z,-0.22
2023-01-30T07:59:14.235Z,-0.23
2023-01-30T08:00:14.695Z,-0.2
2023-01-30T08:01:14.348Z,-0.2
2023-01-30T08:02:14.190Z,-0.2
2023-01-30T08:03:15.281Z,-0.17
2023-01-30T08:04:14.497Z,-0.18
2023-01-30T08:05:14.260Z,-0.18
2023-01-30T08:06:14.434Z,-0.21
2023-01-30T08:07:14.299Z,-0.21
2023-01-30T08:08:14.584Z,-0.23
2023-01-30T08:09:14.461Z,-0.25
2023-01-30T08:10:14.741Z,-0.24
2023-01-30T08:11:14.353Z,-0.21
2023-01-30T08:12:14.376Z,-0.2
2023-01-30T08:13:14.725Z,-0.21
2023-01-30T08:14:14.468Z,-0.22
2023-01-30T08:15:14.423Z,-0.22
2023-01-30T08:16:14.611Z,-0.21
2023-01-30T08:17:14.441Z,-0.19
2023-01-30T08:18:14.462Z,-0.2
2023-01-30T08:19:14.636Z,-0.13
2023-01-30T08:20:14.643Z,-0.1
2023-01-30T08:21:14.539Z,-0.14
2023-01-30T08:22:14.767Z,-0.19
2023-01-30T08:23:14.528Z,-0.21
2023-01-30T08:24:14.791Z,-0.23
2023-01-30T08:25:14.562Z,-0.23
2023-01-30T08:26:14.741Z,-0.18
2023-01-30T08:27:14.613Z,-0.17
2023-01-30T08:28:14.604Z,-0.16
2023-01-30T08:29:15.142Z,-0.21
2023-01-30T08:30:14.722Z,-0.21
2023-01-30T08:31:15.725Z,-0.18
2023-01-30T08:32:15.842Z,-0.17
2023-01-30T08:33:15.277Z,-0.15
2023-01-30T08:34:14.751Z,-0.15
2023-01-30T08:35:15.029Z,-0.11
2023-01-30T08:36:14.789Z,-0.14
2023-01-30T08:37:14.803Z,-0.15
2023-01-30T08:38:16.620Z,-0.13
2023-01-30T08:39:14.932Z,-0.15
2023-01-30T08:40:15.367Z,-0.15
2023-01-30T08:41:14.838Z,-0.14
2023-01-30T08:42:14.857Z,-0.09
2023-01-30T08:43:15.836Z,-0.1
2023-01-30T08:44:14.951Z,-0.09
2023-01-30T08:45:14.928Z,-0.04
2023-01-30T08:46:14.922Z,-0.07
2023-01-30T08:47:14.922Z,-0.09
2023-01-30T08:48:15.165Z,-0.08
2023-01-30T08:49:15.230Z,-0.06
2023-01-30T08:50:15.517Z,-0.06
2023-01-30T08:51:15.207Z,-0.11
2023-01-30T08:52:14.981Z,-0.09
2023-01-30T08:53:15.447Z,-0.07
2023-01-30T08:54:15.059Z,-0.06
2023-01-30T08:55:15.215Z,-0.05
2023-01-30T08:56:15.079Z,-0.03
2023-01-30T08:57:15.533Z,-0.03
2023-01-30T08:58:15.112Z,-0.05
2023-01-30T08:59:15.379Z,-0.08
2023-01-30T09:00:16.083Z,-0.06
2023-01-30T09:01:15.789Z,-0.03
2023-01-30T09:02:15.209Z,0
2023-01-30T09:03:15.572Z,0
2023-01-30T09:04:15.258Z,-0.01
2023-01-30T09:05:15.219Z,0
2023-01-30T09:06:15.224Z,-0.04
2023-01-30T09:07:15.250Z,-0.08
2023-01-30T09:08:15.256Z,-0.07
2023-01-30T09:09:15.733Z,-0.05
2023-01-30T09:10:15.691Z,-0.08
2023-01-30T09:11:15.334Z,-0.05
2023-01-30T09:12:15.338Z,-0.02
2023-01-30T09:13:15.329Z,-0.05
2023-01-30T09:14:16.117Z,-0.02
2023-01-30T09:15:15.549Z,-0.08
2023-01-30T09:16:15.416Z,-0.07
2023-01-30T09:17:15.387Z,-0.04
2023-01-30T09:18:15.436Z,-0.04
2023-01-30T09:19:15.379Z,-0.07
2023-01-30T09:20:16.704Z,-0.06
2023-01-30T09:21:15.416Z,-0.08
2023-01-30T09:22:16.069Z,-0.09
2023-01-30T09:23:15.745Z,-0.06
2023-01-30T09:24:15.619Z,-0.07
2023-01-30T09:25:15.632Z,-0.1
2023-01-30T09:26:15.539Z,-0.08
2023-01-30T09:27:15.511Z,-0.08
2023-01-30T09:28:15.526Z,-0.04
2023-01-30T09:29:15.555Z,0.1
2023-01-30T09:30:16.312Z,0.03
2023-01-30T09:31:15.683Z,-0.01
2023-01-30T09:32:15.596Z,-0.08
2023-01-30T09:33:15.607Z,-0.09
2023-01-30T09:34:15.625Z,-0.08
2023-01-30T09:35:15.642Z,-0.07
2023-01-30T09:36:15.656Z,0.03
2023-01-30T09:37:15.793Z,-0.09
2023-01-30T09:38:15.987Z,-0.08
2023-01-30T09:39:15.757Z,-0.1
2023-01-30T09:40:20.400Z,-0.11
2023-01-30T09:48:43.632Z,-0.05
2023-01-30T09:55:01.294Z,-0.08
2023-01-30T09:55:58.855Z,-0.13
2023-01-30T09:57:01.295Z,-0.12
2023-01-30T09:58:00.137Z,-0.13
2023-01-30T09:58:59.808Z,-0.13
2023-01-30T10:00:03.831Z,-0.18
2023-01-30T10:01:05.928Z,-0.17
2023-01-30T10:03:17.907Z,-0.13
2023-01-30T10:05:11.966Z,-0.13
2023-01-30T10:06:12.738Z,-0.13
2023-01-30T10:13:32.019Z,-0.14
2023-01-30T10:25:50.156Z,-0.15
2023-01-30T10:27:09.227Z,-0.11
2023-01-30T10:27:54.061Z,-0.13
2023-01-30T10:29:57.416Z,-0.17
2023-01-30T10:31:00.647Z,-0.2
2023-01-30T10:32:02.105Z,-0.14
2023-01-30T10:33:02.580Z,-0.18
2023-01-30T10:34:06.489Z,-0.17
2023-01-30T10:36:10.701Z,-0.09
2023-01-30T10:38:21.333Z,-0.13
2023-01-30T10:40:26.460Z,-0.15
2023-01-30T10:41:24.336Z,-0.1
2023-01-30T10:42:24.468Z,-0.11
2023-01-30T10:44:22.857Z,-0.13
2023-01-30T10:45:24.665Z,-0.02
2023-01-30T10:53:40.876Z,-0.14
2023-01-30T10:54:42.877Z,-0.15
2023-01-30T10:59:57.417Z,-0.13
2023-01-30T11:01:01.255Z,-0.14
2023-01-30T11:06:13.458Z,-0.15
2023-01-30T11:07:12.216Z,-0.14
2023-01-30T11:08:21.033Z,-0.11
2023-01-30T11:09:12.729Z,-0.14
2023-01-30T11:10:18.370Z,-0.12
2023-01-30T11:12:17.205Z,-0.13
2023-01-30T11:13:19.024Z,-0.11
2023-01-30T11:14:17.600Z,-0.1
2023-01-30T11:15:17.571Z,-0.13
2023-01-30T11:16:17.493Z,-0.15
2023-01-30T11:17:18.012Z,-0.1
2023-01-30T11:19:17.637Z,-0.1
2023-01-30T11:19:22.713Z,-0.1
2023-01-30T11:20:22.049Z,-0.1
2023-01-30T11:21:24.995Z,-0.11
2023-01-30T11:22:24.828Z,-0.1
2023-01-30T11:23:24.871Z,-0.09
2023-01-30T11:25:24.972Z,-0.1
2023-01-30T11:26:45.485Z,-0.1
2023-01-30T11:27:29.367Z,-0.1
2023-01-30T11:29:31.759Z,-0.1
2023-01-30T11:30:33.584Z,-0.11
2023-01-30T11:31:40.901Z,-0.09
2023-01-30T11:32:33.020Z,-0.06
2023-01-30T11:33:34.723Z,-0.04
2023-01-30T11:34:32.978Z,-0.04
2023-01-30T11:36:35.719Z,-0.09
2023-01-30T11:37:39.875Z,-0.12
2023-01-30T11:38:37.204Z,-0.1
2023-01-30T11:39:36.255Z,-0.12
2023-01-30T11:40:37.946Z,-0.12
2023-01-30T11:41:36.205Z,0.08
2023-01-30T11:42:37.524Z,-0.05
2023-01-30T11:43:38.084Z,0.04
2023-01-30T11:44:37.363Z,0.15
2023-01-30T11:45:44.763Z,0.15
2023-01-30T11:46:42.772Z,0.18
2023-01-30T11:49:11.063Z,0.25
2023-01-30T11:49:55.682Z,0.41
2023-01-30T11:50:54.699Z,0.22
2023-01-30T11:51:53.459Z,0.01
2023-01-30T11:52:51.501Z,0
2023-01-30T11:53:59.268Z,-0.02
2023-01-30T11:55:00.171Z,-0.02
2023-01-30T11:56:08.370Z,-0.02
2023-01-30T11:57:02.932Z,-0.02
2023-01-30T11:58:02.124Z,-0.05
2023-01-30T11:59:07.936Z,0
2023-01-30T12:00:05.143Z,0.03
2023-01-30T12:01:04.960Z,0
2023-01-30T12:03:11.247Z,0.04
2023-01-30T12:04:10.918Z,0.01
2023-01-30T12:05:19.486Z,0
2023-01-30T12:06:11.383Z,0
2023-01-30T12:07:17.430Z,-0.01
2023-01-30T12:08:39.391Z,0
2023-01-30T12:12:29.718Z,0.03
2023-01-30T12:13:33.570Z,0.09
2023-01-30T12:14:42.766Z,0.07
2023-01-30T12:15:31.575Z,0.09
2023-01-30T12:21:45.620Z,0
2023-01-30T12:26:59.031Z,0.04
2023-01-30T12:29:02.979Z,0.01
2023-01-30T12:30:01.862Z,0.03
2023-01-30T12:33:04.105Z,0.03
2023-01-30T12:34:05.365Z,0
2023-01-30T12:35:02.676Z,0
2023-01-30T12:38:15.385Z,0
2023-01-30T12:43:28.545Z,0.07
2023-01-30T12:45:32.764Z,0.07
2023-01-30T12:48:48.899Z,0.08
2023-01-30T13:02:21.872Z,0.05
2023-01-30T13:13:40.688Z,0.12
2023-01-30T13:14:36.556Z,0.12
2023-01-30T13:15:40.700Z,0.08
2023-01-30T13:17:48.873Z,0.08
2023-01-30T13:18:46.836Z,0.06
2023-01-30T13:26:04.869Z,0.05
2023-01-30T13:27:02.208Z,0.05
2023-01-30T13:28:06.348Z,0.08
2023-01-30T13:29:11.723Z,0.1
2023-01-30T13:30:05.570Z,0.08
2023-01-30T13:31:06.452Z,0.12
2023-01-30T13:32:05.966Z,0.13
2023-01-30T13:33:12.391Z,0.13
2023-01-30T13:34:10.559Z,0.13
2023-01-30T13:35:14.292Z,0.15
2023-01-30T13:36:21.618Z,0.11
2023-01-30T13:37:18.893Z,0.13
2023-01-30T13:38:20.700Z,0.12
2023-01-30T13:39:29.637Z,0.15
2023-01-30T13:40:19.226Z,0.15
2023-01-30T13:41:18.381Z,0.14
2023-01-30T13:43:30.584Z,0.13
2023-01-30T13:44:24.578Z,0.13
2023-01-30T13:45:24.639Z,0.13
2023-01-30T13:46:25.439Z,0.12
2023-01-30T13:51:41.622Z,0.15
2023-01-30T13:52:44.978Z,0.14
2023-01-30T13:53:46.988Z,0.12
2023-01-30T13:54:50.461Z,0.15
2023-01-30T13:55:51.595Z,0.13
2023-01-30T13:56:57.387Z,0.09
2023-01-30T14:00:55.497Z,0.15
2023-01-30T14:04:58.550Z,0.12
2023-01-30T14:06:02.735Z,0.09
2023-01-30T14:08:00.292Z,0.15
2023-01-30T14:09:03.041Z,0.15
2023-01-30T14:11:01.287Z,0.17
2023-01-30T14:12:02.595Z,0.21
2023-01-30T14:13:05.146Z,0.2
2023-01-30T14:14:06.222Z,0.19
2023-01-30T14:16:05.394Z,0.17
2023-01-30T14:20:16.814Z,0.17
2023-01-30T14:21:19.075Z,0.19
2023-01-30T14:22:27.938Z,0.19
2023-01-30T14:23:24.416Z,0.15
2023-01-30T14:24:22.574Z,0.12
2023-01-30T14:25:34.986Z,0.13
2023-01-30T14:27:26.258Z,0.18
2023-01-30T14:33:34.398Z,0.18
2023-01-30T14:35:37.576Z,0.15
2023-01-30T14:36:37.486Z,0.18
2023-01-30T14:38:40.170Z,0.16
2023-01-30T14:39:39.974Z,0.17
2023-01-30T14:40:43.179Z,0.16
2023-01-30T14:41:40.371Z,0.15
2023-01-30T14:42:39.419Z,0.13
2023-01-30T14:45:48.493Z,0.18
2023-01-30T14:46:54.414Z,0.18
2023-01-30T14:47:50.910Z,0.22
2023-01-30T14:48:53.051Z,0.21
2023-01-30T14:49:49.949Z,0.17
2023-01-30T14:50:49.921Z,0.17
2023-01-30T14:51:49.837Z,0.19
2023-01-30T14:52:54.543Z,0.15
2023-01-30T14:53:56.065Z,0.15
2023-01-30T14:54:52.772Z,0.18
2023-01-30T14:55:59.677Z,0.16
2023-01-30T14:57:03.596Z,0.14
2023-01-30T14:58:02.228Z,0.16
2023-01-30T14:59:02.558Z,0.15
2023-01-30T15:00:15.618Z,0.18
2023-01-30T15:01:03.382Z,0.19
2023-01-30T15:03:08.436Z,0.17
2023-01-30T15:04:05.342Z,0.19
2023-01-30T15:05:07.607Z,0.15
2023-01-30T15:06:05.633Z,0.16
2023-01-30T15:07:10.980Z,0.21
2023-01-30T15:08:10.187Z,0.21
2023-01-30T15:09:07.822Z,0.2
2023-01-30T15:11:17.605Z,0.18
2023-01-30T15:14:28.054Z,0.18
2023-01-30T15:17:38.711Z,0.21
2023-01-30T15:29:03.014Z,0.15
2023-01-30T15:30:03.781Z,0.13
2023-01-30T15:31:00.293Z,0.11
2023-01-30T15:31:58.223Z,0.11
2023-01-30T15:34:01.275Z,0.18
2023-01-30T15:35:03.015Z,0.18
2023-01-30T15:37:03.809Z,0.12
2023-01-30T15:38:03.889Z,0.08
2023-01-30T15:39:17.832Z,0.16
2023-01-30T15:41:06.606Z,0.12
2023-01-30T15:42:07.574Z,0.14
2023-01-30T15:44:19.833Z,0.14
2023-01-30T15:50:24.934Z,0.13
2023-01-30T15:51:29.457Z,0.15
2023-01-30T15:52:29.924Z,0.21
2023-01-30T15:53:30.643Z,0.21
2023-01-30T15:54:27.007Z,0.2
2023-01-30T15:55:28.783Z,0.18
2023-01-30T15:56:28.433Z,0.14
2023-01-30T15:57:29.417Z,0.17
2023-01-30T15:58:28.235Z,0.19
2023-01-30T15:59:33.263Z,0.18
2023-01-30T16:00:34.433Z,0.16
2023-01-30T16:01:30.950Z,0.2
2023-01-30T16:02:32.461Z,0.18
2023-01-30T16:03:31.852Z,0.18
2023-01-30T16:04:30.747Z,0.18
2023-01-30T16:05:30.753Z,0.16
2023-01-30T16:06:35.230Z,0.14
2023-01-30T16:07:31.779Z,0.17
2023-01-30T16:08:32.838Z,0.13
2023-01-30T16:09:31.491Z,0.1
2023-01-30T16:10:31.512Z,0.14
2023-01-30T16:11:39.093Z,0.14
2023-01-30T16:12:35.332Z,0.1
2023-01-30T16:13:35.342Z,0.13
2023-01-30T16:14:35.349Z,0.14
2023-01-30T16:15:41.669Z,0.13
2023-01-30T16:16:38.436Z,0.13
2023-01-30T16:17:38.469Z,0.11
2023-01-30T16:18:40.443Z,0.12
2023-01-30T16:19:38.492Z,0.12
2023-01-30T16:20:55.231Z,0.13
2023-01-30T16:21:45.516Z,0.11
2023-01-30T16:22:43.123Z,0.13
2023-01-30T16:23:43.122Z,0.12
2023-01-30T16:24:43.940Z,0.1
2023-01-30T16:25:45.995Z,0.14
2023-01-30T16:26:44.316Z,0.12
2023-01-30T16:27:42.544Z,0.14
2023-01-30T16:28:42.406Z,0.16
2023-01-30T16:30:43.361Z,0.15
2023-01-30T16:31:45.333Z,0.14
2023-01-30T16:32:43.400Z,0.16
2023-01-30T16:34:45.997Z,0.18
2023-01-30T16:35:46.386Z,0.16
2023-01-30T16:36:47.010Z,0.14
2023-01-30T16:37:46.075Z,0.16
2023-01-30T16:38:46.836Z,0.18
2023-01-30T16:40:49.166Z,0.21
2023-01-30T16:41:54.616Z,0.21
2023-01-30T16:47:04.583Z,0.2
2023-01-30T16:49:05.305Z,0.23
2023-01-30T16:53:15.926Z,0.24
2023-01-30T16:55:22.978Z,0.28
2023-01-30T16:56:19.385Z,0.28
2023-01-30T16:58:22.275Z,0.3
2023-01-30T16:59:27.089Z,0.3
2023-01-30T17:00:24.885Z,0.35
2023-01-30T17:02:33.365Z,0.38
2023-01-30T17:03:32.126Z,0.35